New Creek, WV

5:38 PM EDT on September 01, 2015 (GMT -0400)
Top of Knobbly Mountain | | Change Station
CLOSE
Current Station
Personal Weather Station
Location: New Creek, WV
Elevation: 1745 ft
Nearby Weather Stations

Elev 1745 ft 39.35 °N, 79.01 °W | Updated 2 minutes ago

Partly Cloudy
Partly Cloudy
86.3 °F
Feels Like 86 °F
N
6.0
Wind Variable Wind from West
Gusts 15.0 mph

Today
High -- | Low -- °F
--% Chance of Precip.
Yesterday
High -- | Low -- °F
Precip. -- in
6:44 AM 7:47 PM
Waning Gibbous, 86% visible
Pressure 30.06 in
Visibility 10.0 miles
Clouds Clear
Heat Index 86 °F
Dew Point 60 °F
Humidity 42%
Rainfall 0.00 in
Snow Depth Not available.
UV 3 out of 12
Pollen 9.70 out of 12
Air Quality Not available.
Flu Activity Not available.
METAR KW99 012115Z AUTO 00000KT 10SM CLR 31/18 A3006 RMK AO2 T03060177
Pressure 30.06 in
Visibility 10.0 miles
Clouds Clear
Heat Index 86 °F
Dew Point 60 °F
Humidity 42%
Rainfall 0.00 in
Snow Depth Not available.
UV 3 out of 12
Pollen 9.70 out of 12
Air Quality Not available.
Flu Activity Not available.
METAR KW99 012115Z AUTO 00000KT 10SM CLR 31/18 A3006 RMK AO2 T03060177

10-Day Weather Forecast

×

Almanac

Astronomy

Sep. 01, 2015 Rise Set
Actual Time
Civil Twilight
Nautical Twilight
Astronomical Twilight
Moon
Length of Visible Light
Length of Day
Tomorrow will be .
, % of the Moon is Illuminated

Today's Extremes

State Highs State Lows

Community

WunderPhotos

Upload Photos

1,851,628 photos uploaded!

WunderBlogs® & News

Nearby

Air Quality

  Air Quality AQ Index Pollutant
Not available.

Snow Depth

Station Depth Elevation

Earthquake Activity

City Distance Mag. Time & Date
Minimum magnitude displayed is 2.5.

Coastal Water Temperatures

Place Temperature

Stations

Nearby Weather Stations

Station Location Temp. Windchill Dew Point Humidity Wind Precip. Elev Updated Type